Main page
METAR-TAF:

METAR-TAF

Airports :

RAF Kinloss

Kinloss, Scotland

latitude: 57-39N, longitude: 003-34W, elevation: 7 m

Current weather observation

The report was made 1 hour and 5 minutes ago, at 06:50 UTC
Wind 19 kt from the Southwest
Temperature 5°C
Humidity 81%
Pressure 1018 hPa
Visibility 10 km or more
light rain

METAR: EGQK 240650Z AUTO 23019KT 9999 -RA FEW024/// SCT038/// 05/02 Q1018

Time: 07:55 (07:55 UTC)


TAF: missing

Weather observations and forecasts of more than 4000 airports (METAR and TAF reports).

The available stations are represented by yellow and red dots on the map.

Hover mouse over dot to see the name of the station.

Then click to see weather observations and forecasts.

To change the map : click on the green buttons with a black cross to zoom in, on the green button with a dash to zoom out, or on the green arrows for adjacent maps.


METAR-TAF: